TimeAKDT,TemperatureF,Dew PointF,Humidity,Sea Level PressureIn,VisibilityMPH,Wind Direction,Wind SpeedMPH,Gust SpeedMPH,PrecipitationIn,Events,Conditions,WindDirDegrees,DateUTC
12:53 AM,60.1,52.0,75,30.03,10.0,Calm,Calm,-,N/A,,Overcast,0,2013-06-21 08:53:00
1:53 AM,59.0,52.0,78,30.03,10.0,Calm,Calm,-,N/A,,Overcast,0,2013-06-21 09:53:00
2:53 AM,59.0,52.0,78,30.04,10.0,NNE,4.6,-,N/A,,Overcast,30,2013-06-21 10:53:00
3:53 AM,57.9,52.0,81,30.04,10.0,Calm,Calm,-,N/A,,Overcast,0,2013-06-21 11:53:00
4:53 AM,57.0,51.1,81,30.04,10.0,Calm,Calm,-,N/A,,Overcast,0,2013-06-21 12:53:00
5:53 AM,57.9,52.0,81,30.05,10.0,Calm,Calm,-,N/A,,Mostly Cloudy,0,2013-06-21 13:53:00
6:53 AM,51.1,48.0,89,30.07,10.0,SW,3.5,-,N/A,,Scattered Clouds,220,2013-06-21 14:53:00
7:53 AM,55.9,50.0,80,30.06,10.0,SW,3.5,-,N/A,,Overcast,230,2013-06-21 15:53:00
8:53 AM,57.0,51.1,81,30.04,10.0,SSW,3.5,-,N/A,,Partly Cloudy,210,2013-06-21 16:53:00
9:53 AM,55.0,50.0,83,30.04,10.0,SW,4.6,-,N/A,,Clear,230,2013-06-21 17:53:00
10:53 AM,60.1,52.0,75,30.02,10.0,Calm,Calm,-,N/A,,Clear,0,2013-06-21 18:53:00
11:53 AM,62.1,52.0,70,30.00,10.0,SW,3.5,-,N/A,,Clear,230,2013-06-21 19:53:00
12:53 PM,64.9,51.1,61,29.98,10.0,SSW,19.6,-,N/A,,Clear,210,2013-06-21 20:53:00
1:53 PM,66.9,52.0,59,29.97,10.0,SSW,21.9,-,N/A,,Clear,210,2013-06-21 21:53:00
2:53 PM,66.9,52.0,59,29.96,10.0,SSW,18.4,-,N/A,,Clear,210,2013-06-21 22:53:00
3:53 PM,68.0,53.1,59,29.95,10.0,SSW,19.6,-,N/A,,Clear,210,2013-06-21 23:53:00
4:53 PM,66.9,53.1,61,29.94,10.0,SW,18.4,-,N/A,,Clear,220,2013-06-22 00:53:00
5:53 PM,64.9,52.0,63,29.94,10.0,SW,17.3,-,N/A,,Clear,220,2013-06-22 01:53:00
6:53 PM,64.0,51.1,63,29.93,10.0,SW,15.0,-,N/A,,Clear,230,2013-06-22 02:53:00
7:53 PM,63.0,50.0,63,29.93,10.0,SW,17.3,-,N/A,,Clear,230,2013-06-22 03:53:00
8:53 PM,63.0,50.0,63,29.94,10.0,WSW,10.4,-,N/A,,Clear,240,2013-06-22 04:53:00
9:53 PM,63.0,50.0,63,29.95,10.0,Calm,Calm,-,N/A,,Clear,0,2013-06-22 05:53:00
10:53 PM,62.1,51.1,67,29.95,10.0,NE,3.5,-,N/A,,Clear,40,2013-06-22 06:53:00
11:53 PM,59.0,50.0,72,29.96,10.0,NNE,3.5,-,N/A,,Clear,20,2013-06-22 07:53:00